sensor_id;sensor_type;location;lat;lon;timestamp;P1;durP1;ratioP1;P2;durP2;ratioP2
4601;SDS011;2313;48.552;9.370;2023-07-28T00:00:42;1.80;;;1.70;;
4601;SDS011;2313;48.552;9.370;2023-07-28T00:03:08;4.27;;;2.20;;
4601;SDS011;2313;48.552;9.370;2023-07-28T00:05:35;2.00;;;1.70;;
4601;SDS011;2313;48.552;9.370;2023-07-28T00:08:01;4.17;;;2.67;;
4601;SDS011;2313;48.552;9.370;2023-07-28T00:10:27;5.23;;;2.37;;
4601;SDS011;2313;48.552;9.370;2023-07-28T00:12:52;3.60;;;2.40;;
4601;SDS011;2313;48.552;9.370;2023-07-28T00:15:18;4.53;;;2.30;;
4601;SDS011;2313;48.552;9.370;2023-07-28T00:17:44;2.20;;;2.00;;
4601;SDS011;2313;48.552;9.370;2023-07-28T00:20:10;4.50;;;2.77;;
4601;SDS011;2313;48.552;9.370;2023-07-28T00:22:36;4.50;;;2.70;;
4601;SDS011;2313;48.552;9.370;2023-07-28T00:25:02;2.83;;;2.50;;
4601;SDS011;2313;48.552;9.370;2023-07-28T00:27:27;3.50;;;2.13;;
4601;SDS011;2313;48.552;9.370;2023-07-28T00:29:53;3.40;;;2.70;;
4601;SDS011;2313;48.552;9.370;2023-07-28T00:32:18;3.10;;;2.30;;
4601;SDS011;2313;48.552;9.370;2023-07-28T00:34:44;4.20;;;2.30;;
4601;SDS011;2313;48.552;9.370;2023-07-28T00:37:10;2.50;;;2.07;;
4601;SDS011;2313;48.552;9.370;2023-07-28T00:39:35;1.93;;;1.83;;
4601;SDS011;2313;48.552;9.370;2023-07-28T00:42:01;6.60;;;2.60;;
4601;SDS011;2313;48.552;9.370;2023-07-28T00:44:27;3.10;;;2.67;;
4601;SDS011;2313;48.552;9.370;2023-07-28T00:46:52;2.57;;;2.37;;
4601;SDS011;2313;48.552;9.370;2023-07-28T00:49:18;6.20;;;2.33;;
4601;SDS011;2313;48.552;9.370;2023-07-28T00:51:43;3.23;;;2.13;;
4601;SDS011;2313;48.552;9.370;2023-07-28T00:54:09;2.57;;;2.10;;
4601;SDS011;2313;48.552;9.370;2023-07-28T00:56:37;3.00;;;1.90;;
4601;SDS011;2313;48.552;9.370;2023-07-28T00:59:02;2.03;;;1.83;;
4601;SDS011;2313;48.552;9.370;2023-07-28T01:01:28;2.40;;;1.93;;
4601;SDS011;2313;48.552;9.370;2023-07-28T01:03:54;5.70;;;2.20;;
4601;SDS011;2313;48.552;9.370;2023-07-28T01:09:13;2.53;;;2.10;;
4601;SDS011;2313;48.552;9.370;2023-07-28T01:11:53;3.27;;;1.97;;
4601;SDS011;2313;48.552;9.370;2023-07-28T01:14:19;4.07;;;2.33;;
4601;SDS011;2313;48.552;9.370;2023-07-28T01:16:45;3.30;;;2.33;;
4601;SDS011;2313;48.552;9.370;2023-07-28T01:19:11;2.50;;;2.30;;
4601;SDS011;2313;48.552;9.370;2023-07-28T01:21:37;3.93;;;2.30;;
4601;SDS011;2313;48.552;9.370;2023-07-28T01:26:40;2.03;;;1.70;;
4601;SDS011;2313;48.552;9.370;2023-07-28T01:29:06;4.43;;;2.30;;
4601;SDS011;2313;48.552;9.370;2023-07-28T01:31:32;3.80;;;2.10;;
4601;SDS011;2313;48.552;9.370;2023-07-28T01:33:58;3.47;;;2.07;;
4601;SDS011;2313;48.552;9.370;2023-07-28T01:36:23;1.73;;;1.63;;
4601;SDS011;2313;48.552;9.370;2023-07-28T01:38:49;2.43;;;1.83;;
4601;SDS011;2313;48.552;9.370;2023-07-28T01:41:15;3.17;;;2.47;;
4601;SDS011;2313;48.552;9.370;2023-07-28T01:43:40;2.30;;;2.10;;
4601;SDS011;2313;48.552;9.370;2023-07-28T01:46:07;2.13;;;1.90;;
4601;SDS011;2313;48.552;9.370;2023-07-28T01:48:32;2.30;;;2.10;;
4601;SDS011;2313;48.552;9.370;2023-07-28T01:50:58;3.17;;;2.27;;
4601;SDS011;2313;48.552;9.370;2023-07-28T01:53:24;2.03;;;1.83;;
4601;SDS011;2313;48.552;9.370;2023-07-28T01:55:49;3.00;;;2.13;;
4601;SDS011;2313;48.552;9.370;2023-07-28T01:58:15;3.00;;;2.07;;
4601;SDS011;2313;48.552;9.370;2023-07-28T02:00:40;2.47;;;2.00;;
4601;SDS011;2313;48.552;9.370;2023-07-28T02:03:06;4.90;;;2.00;;
4601;SDS011;2313;48.552;9.370;2023-07-28T02:05:32;2.23;;;2.03;;
4601;SDS011;2313;48.552;9.370;2023-07-28T02:07:57;2.67;;;2.07;;
4601;SDS011;2313;48.552;9.370;2023-07-28T02:10:23;3.90;;;1.90;;
4601;SDS011;2313;48.552;9.370;2023-07-28T02:12:49;5.00;;;2.17;;
4601;SDS011;2313;48.552;9.370;2023-07-28T02:15:16;3.53;;;1.93;;
4601;SDS011;2313;48.552;9.370;2023-07-28T02:17:42;2.70;;;2.50;;
4601;SDS011;2313;48.552;9.370;2023-07-28T02:20:07;3.83;;;2.60;;
4601;SDS011;2313;48.552;9.370;2023-07-28T02:22:37;5.40;;;2.30;;
4601;SDS011;2313;48.552;9.370;2023-07-28T02:25:07;2.37;;;2.17;;
4601;SDS011;2313;48.552;9.370;2023-07-28T02:27:33;2.97;;;1.60;;
4601;SDS011;2313;48.552;9.370;2023-07-28T02:29:59;4.07;;;2.20;;
4601;SDS011;2313;48.552;9.370;2023-07-28T02:32:25;3.27;;;2.30;;
4601;SDS011;2313;48.552;9.370;2023-07-28T02:34:51;2.90;;;2.10;;
4601;SDS011;2313;48.552;9.370;2023-07-28T02:37:17;1.80;;;1.70;;
4601;SDS011;2313;48.552;9.370;2023-07-28T02:39:42;2.10;;;1.90;;
4601;SDS011;2313;48.552;9.370;2023-07-28T02:42:08;3.60;;;2.37;;
4601;SDS011;2313;48.552;9.370;2023-07-28T02:44:34;2.13;;;1.90;;
4601;SDS011;2313;48.552;9.370;2023-07-28T02:46:59;2.70;;;1.60;;
4601;SDS011;2313;48.552;9.370;2023-07-28T02:49:25;3.23;;;1.70;;
4601;SDS011;2313;48.552;9.370;2023-07-28T02:51:50;2.93;;;2.00;;
4601;SDS011;2313;48.552;9.370;2023-07-28T02:54:16;2.80;;;1.80;;
4601;SDS011;2313;48.552;9.370;2023-07-28T02:56:42;2.20;;;2.00;;
4601;SDS011;2313;48.552;9.370;2023-07-28T02:59:07;1.97;;;1.87;;
4601;SDS011;2313;48.552;9.370;2023-07-28T03:01:33;2.10;;;1.83;;
4601;SDS011;2313;48.552;9.370;2023-07-28T03:04:00;2.60;;;1.87;;
4601;SDS011;2313;48.552;9.370;2023-07-28T03:06:26;4.70;;;1.77;;
4601;SDS011;2313;48.552;9.370;2023-07-28T03:08:52;1.90;;;1.80;;
4601;SDS011;2313;48.552;9.370;2023-07-28T03:11:17;3.03;;;1.90;;
4601;SDS011;2313;48.552;9.370;2023-07-28T03:13:43;1.80;;;1.70;;
4601;SDS011;2313;48.552;9.370;2023-07-28T03:16:08;2.17;;;1.97;;
4601;SDS011;2313;48.552;9.370;2023-07-28T03:18:34;9.80;;;2.17;;
4601;SDS011;2313;48.552;9.370;2023-07-28T03:21:00;4.00;;;1.70;;
4601;SDS011;2313;48.552;9.370;2023-07-28T03:23:26;3.10;;;2.40;;
4601;SDS011;2313;48.552;9.370;2023-07-28T03:25:51;4.40;;;2.50;;
4601;SDS011;2313;48.552;9.370;2023-07-28T03:28:17;2.87;;;2.07;;
4601;SDS011;2313;48.552;9.370;2023-07-28T03:30:44;6.53;;;2.70;;
4601;SDS011;2313;48.552;9.370;2023-07-28T03:33:12;1.90;;;1.70;;
4601;SDS011;2313;48.552;9.370;2023-07-28T03:35:38;2.00;;;1.90;;
4601;SDS011;2313;48.552;9.370;2023-07-28T03:38:03;2.33;;;1.97;;
4601;SDS011;2313;48.552;9.370;2023-07-28T03:40:29;3.73;;;1.93;;
4601;SDS011;2313;48.552;9.370;2023-07-28T03:42:55;5.60;;;2.27;;
4601;SDS011;2313;48.552;9.370;2023-07-28T03:45:20;2.87;;;2.27;;
4601;SDS011;2313;48.552;9.370;2023-07-28T03:47:46;3.57;;;2.30;;
4601;SDS011;2313;48.552;9.370;2023-07-28T03:50:11;3.53;;;2.40;;
4601;SDS011;2313;48.552;9.370;2023-07-28T03:52:37;2.97;;;2.10;;
4601;SDS011;2313;48.552;9.370;2023-07-28T03:55:03;3.80;;;2.70;;
4601;SDS011;2313;48.552;9.370;2023-07-28T03:57:29;2.83;;;1.90;;
4601;SDS011;2313;48.552;9.370;2023-07-28T03:59:54;3.60;;;2.70;;
4601;SDS011;2313;48.552;9.370;2023-07-28T04:02:20;2.50;;;2.30;;
4601;SDS011;2313;48.552;9.370;2023-07-28T04:04:46;2.57;;;2.23;;
4601;SDS011;2313;48.552;9.370;2023-07-28T04:07:11;3.20;;;2.67;;
4601;SDS011;2313;48.552;9.370;2023-07-28T04:09:37;2.63;;;2.43;;
4601;SDS011;2313;48.552;9.370;2023-07-28T04:12:02;2.43;;;2.23;;
4601;SDS011;2313;48.552;9.370;2023-07-28T04:14:28;2.67;;;2.47;;
4601;SDS011;2313;48.552;9.370;2023-07-28T04:16:54;6.40;;;2.50;;
4601;SDS011;2313;48.552;9.370;2023-07-28T04:19:19;2.80;;;2.10;;
4601;SDS011;2313;48.552;9.370;2023-07-28T04:21:45;2.43;;;2.20;;
4601;SDS011;2313;48.552;9.370;2023-07-28T04:24:11;2.13;;;1.93;;
4601;SDS011;2313;48.552;9.370;2023-07-28T04:26:37;4.20;;;2.37;;
4601;SDS011;2313;48.552;9.370;2023-07-28T04:29:03;2.70;;;2.50;;
4601;SDS011;2313;48.552;9.370;2023-07-28T04:31:28;2.20;;;1.90;;
4601;SDS011;2313;48.552;9.370;2023-07-28T04:33:54;3.70;;;2.43;;
4601;SDS011;2313;48.552;9.370;2023-07-28T04:36:20;2.37;;;2.10;;
4601;SDS011;2313;48.552;9.370;2023-07-28T04:38:45;7.93;;;3.10;;
4601;SDS011;2313;48.552;9.370;2023-07-28T04:41:11;2.40;;;2.20;;
4601;SDS011;2313;48.552;9.370;2023-07-28T04:43:36;2.97;;;1.97;;
4601;SDS011;2313;48.552;9.370;2023-07-28T04:46:02;3.80;;;2.20;;
4601;SDS011;2313;48.552;9.370;2023-07-28T04:48:27;2.70;;;2.27;;
4601;SDS011;2313;48.552;9.370;2023-07-28T04:50:53;2.87;;;2.67;;
4601;SDS011;2313;48.552;9.370;2023-07-28T04:53:19;2.23;;;2.03;;
4601;SDS011;2313;48.552;9.370;2023-07-28T04:55:45;5.10;;;1.80;;
4601;SDS011;2313;48.552;9.370;2023-07-28T04:58:10;2.20;;;2.00;;
4601;SDS011;2313;48.552;9.370;2023-07-28T05:00:36;3.67;;;2.50;;
4601;SDS011;2313;48.552;9.370;2023-07-28T05:03:01;2.83;;;2.10;;
4601;SDS011;2313;48.552;9.370;2023-07-28T05:05:28;5.03;;;2.50;;
4601;SDS011;2313;48.552;9.370;2023-07-28T05:07:54;4.30;;;2.33;;
4601;SDS011;2313;48.552;9.370;2023-07-28T05:10:20;7.43;;;2.57;;
4601;SDS011;2313;48.552;9.370;2023-07-28T05:12:45;4.17;;;2.50;;
4601;SDS011;2313;48.552;9.370;2023-07-28T05:15:13;3.10;;;2.50;;
4601;SDS011;2313;48.552;9.370;2023-07-28T05:17:40;3.40;;;2.30;;
4601;SDS011;2313;48.552;9.370;2023-07-28T05:20:05;3.60;;;2.60;;
4601;SDS011;2313;48.552;9.370;2023-07-28T05:22:31;2.93;;;2.30;;
4601;SDS011;2313;48.552;9.370;2023-07-28T05:24:57;2.63;;;2.40;;
4601;SDS011;2313;48.552;9.370;2023-07-28T05:27:22;3.60;;;2.50;;
4601;SDS011;2313;48.552;9.370;2023-07-28T05:29:48;3.83;;;2.03;;
4601;SDS011;2313;48.552;9.370;2023-07-28T05:32:13;3.43;;;2.80;;
4601;SDS011;2313;48.552;9.370;2023-07-28T05:34:42;3.57;;;2.70;;
4601;SDS011;2313;48.552;9.370;2023-07-28T05:37:08;2.90;;;2.67;;
4601;SDS011;2313;48.552;9.370;2023-07-28T05:39:34;3.83;;;2.40;;
4601;SDS011;2313;48.552;9.370;2023-07-28T05:42:00;3.93;;;2.73;;
4601;SDS011;2313;48.552;9.370;2023-07-28T05:44:26;2.10;;;1.90;;
4601;SDS011;2313;48.552;9.370;2023-07-28T05:46:52;2.80;;;2.60;;
4601;SDS011;2313;48.552;9.370;2023-07-28T05:49:18;3.57;;;2.80;;
4601;SDS011;2313;48.552;9.370;2023-07-28T05:51:43;4.17;;;2.40;;
4601;SDS011;2313;48.552;9.370;2023-07-28T05:54:09;5.93;;;3.60;;
4601;SDS011;2313;48.552;9.370;2023-07-28T05:56:35;3.60;;;2.90;;
4601;SDS011;2313;48.552;9.370;2023-07-28T05:59:00;5.23;;;3.20;;
4601;SDS011;2313;48.552;9.370;2023-07-28T06:01:26;4.77;;;3.00;;
4601;SDS011;2313;48.552;9.370;2023-07-28T06:03:52;4.60;;;2.63;;
4601;SDS011;2313;48.552;9.370;2023-07-28T06:06:20;3.77;;;2.83;;
4601;SDS011;2313;48.552;9.370;2023-07-28T06:08:47;4.17;;;2.80;;
4601;SDS011;2313;48.552;9.370;2023-07-28T06:11:12;2.80;;;2.60;;
4601;SDS011;2313;48.552;9.370;2023-07-28T06:13:38;4.20;;;3.17;;
4601;SDS011;2313;48.552;9.370;2023-07-28T06:16:03;4.10;;;3.70;;
4601;SDS011;2313;48.552;9.370;2023-07-28T06:18:29;5.73;;;2.93;;
4601;SDS011;2313;48.552;9.370;2023-07-28T06:20:55;3.80;;;2.87;;
4601;SDS011;2313;48.552;9.370;2023-07-28T06:23:20;3.20;;;2.30;;
4601;SDS011;2313;48.552;9.370;2023-07-28T06:25:46;8.53;;;2.60;;
4601;SDS011;2313;48.552;9.370;2023-07-28T06:28:12;8.20;;;2.93;;
4601;SDS011;2313;48.552;9.370;2023-07-28T06:30:38;4.50;;;2.53;;
4601;SDS011;2313;48.552;9.370;2023-07-28T06:33:07;3.80;;;2.80;;
4601;SDS011;2313;48.552;9.370;2023-07-28T06:35:33;3.20;;;2.60;;
4601;SDS011;2313;48.552;9.370;2023-07-28T06:37:59;4.50;;;2.80;;
4601;SDS011;2313;48.552;9.370;2023-07-28T06:40:26;4.90;;;2.77;;
4601;SDS011;2313;48.552;9.370;2023-07-28T06:42:51;3.03;;;2.63;;
4601;SDS011;2313;48.552;9.370;2023-07-28T06:45:17;2.73;;;2.53;;
4601;SDS011;2313;48.552;9.370;2023-07-28T06:47:43;6.37;;;3.07;;
4601;SDS011;2313;48.552;9.370;2023-07-28T06:50:10;5.13;;;3.17;;
4601;SDS011;2313;48.552;9.370;2023-07-28T06:52:36;4.77;;;2.93;;
4601;SDS011;2313;48.552;9.370;2023-07-28T06:55:02;4.47;;;2.67;;
4601;SDS011;2313;48.552;9.370;2023-07-28T06:57:28;5.33;;;3.17;;
4601;SDS011;2313;48.552;9.370;2023-07-28T06:59:55;3.70;;;2.90;;
4601;SDS011;2313;48.552;9.370;2023-07-28T07:02:21;5.23;;;3.27;;
4601;SDS011;2313;48.552;9.370;2023-07-28T07:04:46;3.83;;;3.00;;
4601;SDS011;2313;48.552;9.370;2023-07-28T07:07:12;3.83;;;2.90;;
4601;SDS011;2313;48.552;9.370;2023-07-28T07:09:38;4.07;;;3.10;;
4601;SDS011;2313;48.552;9.370;2023-07-28T07:12:04;5.50;;;2.90;;
4601;SDS011;2313;48.552;9.370;2023-07-28T07:14:30;5.30;;;3.50;;
4601;SDS011;2313;48.552;9.370;2023-07-28T07:16:56;3.90;;;2.83;;
4601;SDS011;2313;48.552;9.370;2023-07-28T07:19:21;4.67;;;3.20;;
4601;SDS011;2313;48.552;9.370;2023-07-28T07:21:47;3.70;;;2.37;;
4601;SDS011;2313;48.552;9.370;2023-07-28T07:24:14;3.70;;;2.90;;
4601;SDS011;2313;48.552;9.370;2023-07-28T07:26:40;3.87;;;3.10;;
4601;SDS011;2313;48.552;9.370;2023-07-28T07:29:06;3.70;;;3.40;;
4601;SDS011;2313;48.552;9.370;2023-07-28T07:31:33;6.70;;;2.83;;
4601;SDS011;2313;48.552;9.370;2023-07-28T07:33:59;4.10;;;2.90;;
4601;SDS011;2313;48.552;9.370;2023-07-28T07:36:25;12.10;;;3.10;;
4601;SDS011;2313;48.552;9.370;2023-07-28T07:38:50;8.73;;;3.20;;
4601;SDS011;2313;48.552;9.370;2023-07-28T07:41:16;4.60;;;3.20;;
4601;SDS011;2313;48.552;9.370;2023-07-28T07:43:45;5.10;;;3.17;;
4601;SDS011;2313;48.552;9.370;2023-07-28T07:46:11;3.77;;;2.90;;
4601;SDS011;2313;48.552;9.370;2023-07-28T07:48:37;10.80;;;2.90;;
4601;SDS011;2313;48.552;9.370;2023-07-28T07:51:03;3.00;;;2.70;;
4601;SDS011;2313;48.552;9.370;2023-07-28T07:53:29;3.23;;;2.60;;
4601;SDS011;2313;48.552;9.370;2023-07-28T07:55:54;7.00;;;3.70;;
4601;SDS011;2313;48.552;9.370;2023-07-28T07:58:20;4.77;;;3.03;;
4601;SDS011;2313;48.552;9.370;2023-07-28T08:00:45;5.50;;;2.70;;
4601;SDS011;2313;48.552;9.370;2023-07-28T08:03:11;7.57;;;2.37;;
4601;SDS011;2313;48.552;9.370;2023-07-28T08:05:37;4.50;;;2.70;;
4601;SDS011;2313;48.552;9.370;2023-07-28T08:08:02;2.87;;;2.60;;
4601;SDS011;2313;48.552;9.370;2023-07-28T08:10:30;6.40;;;2.73;;
4601;SDS011;2313;48.552;9.370;2023-07-28T08:12:56;5.70;;;2.63;;
4601;SDS011;2313;48.552;9.370;2023-07-28T08:15:22;3.70;;;2.97;;
4601;SDS011;2313;48.552;9.370;2023-07-28T08:17:47;3.83;;;2.90;;
4601;SDS011;2313;48.552;9.370;2023-07-28T08:20:13;3.40;;;2.40;;
4601;SDS011;2313;48.552;9.370;2023-07-28T08:22:39;5.70;;;2.90;;
4601;SDS011;2313;48.552;9.370;2023-07-28T08:25:04;5.00;;;2.57;;
4601;SDS011;2313;48.552;9.370;2023-07-28T08:27:30;5.60;;;2.43;;
4601;SDS011;2313;48.552;9.370;2023-07-28T08:29:56;3.20;;;2.67;;
4601;SDS011;2313;48.552;9.370;2023-07-28T08:32:21;3.33;;;2.90;;
4601;SDS011;2313;48.552;9.370;2023-07-28T08:34:47;3.30;;;2.70;;
4601;SDS011;2313;48.552;9.370;2023-07-28T08:37:13;6.97;;;2.70;;
4601;SDS011;2313;48.552;9.370;2023-07-28T08:39:38;4.27;;;2.90;;
4601;SDS011;2313;48.552;9.370;2023-07-28T08:42:04;3.20;;;2.90;;
4601;SDS011;2313;48.552;9.370;2023-07-28T08:44:34;5.80;;;3.47;;
4601;SDS011;2313;48.552;9.370;2023-07-28T08:47:00;4.93;;;2.47;;
4601;SDS011;2313;48.552;9.370;2023-07-28T08:49:27;2.50;;;2.30;;
4601;SDS011;2313;48.552;9.370;2023-07-28T08:51:59;3.30;;;3.00;;
4601;SDS011;2313;48.552;9.370;2023-07-28T08:54:25;3.40;;;2.70;;
4601;SDS011;2313;48.552;9.370;2023-07-28T08:56:51;7.43;;;2.73;;
4601;SDS011;2313;48.552;9.370;2023-07-28T08:59:24;4.17;;;3.00;;
4601;SDS011;2313;48.552;9.370;2023-07-28T09:01:52;3.33;;;2.70;;
4601;SDS011;2313;48.552;9.370;2023-07-28T09:04:19;4.33;;;2.60;;
4601;SDS011;2313;48.552;9.370;2023-07-28T09:06:46;2.60;;;2.30;;
4601;SDS011;2313;48.552;9.370;2023-07-28T09:09:16;4.97;;;2.67;;
4601;SDS011;2313;48.552;9.370;2023-07-28T09:11:50;3.40;;;2.90;;
4601;SDS011;2313;48.552;9.370;2023-07-28T09:14:17;3.23;;;2.80;;
4601;SDS011;2313;48.552;9.370;2023-07-28T09:16:44;6.47;;;2.90;;
4601;SDS011;2313;48.552;9.370;2023-07-28T09:19:10;8.87;;;2.80;;
4601;SDS011;2313;48.552;9.370;2023-07-28T09:21:37;4.30;;;2.97;;
4601;SDS011;2313;48.552;9.370;2023-07-28T09:24:04;3.70;;;2.67;;
4601;SDS011;2313;48.552;9.370;2023-07-28T09:26:41;7.43;;;3.07;;
4601;SDS011;2313;48.552;9.370;2023-07-28T09:29:14;2.70;;;2.50;;
4601;SDS011;2313;48.552;9.370;2023-07-28T09:31:41;5.80;;;2.40;;
4601;SDS011;2313;48.552;9.370;2023-07-28T09:34:07;3.70;;;2.40;;
4601;SDS011;2313;48.552;9.370;2023-07-28T09:36:34;4.70;;;2.93;;
4601;SDS011;2313;48.552;9.370;2023-07-28T09:39:01;3.63;;;2.80;;
4601;SDS011;2313;48.552;9.370;2023-07-28T09:41:31;3.80;;;3.30;;
4601;SDS011;2313;48.552;9.370;2023-07-28T09:43:59;4.53;;;2.80;;
4601;SDS011;2313;48.552;9.370;2023-07-28T09:46:25;4.37;;;3.10;;
4601;SDS011;2313;48.552;9.370;2023-07-28T09:48:56;3.07;;;2.50;;
4601;SDS011;2313;48.552;9.370;2023-07-28T09:51:24;3.10;;;2.83;;
4601;SDS011;2313;48.552;9.370;2023-07-28T09:54:00;6.83;;;3.10;;
4601;SDS011;2313;48.552;9.370;2023-07-28T09:56:31;5.63;;;3.10;;
4601;SDS011;2313;48.552;9.370;2023-07-28T09:58:58;2.93;;;2.73;;
4601;SDS011;2313;48.552;9.370;2023-07-28T10:01:25;2.90;;;2.50;;
4601;SDS011;2313;48.552;9.370;2023-07-28T10:03:53;6.20;;;3.07;;
4601;SDS011;2313;48.552;9.370;2023-07-28T10:06:19;3.10;;;2.80;;
4601;SDS011;2313;48.552;9.370;2023-07-28T10:08:45;5.40;;;2.80;;
4601;SDS011;2313;48.552;9.370;2023-07-28T10:11:17;2.50;;;2.30;;
4601;SDS011;2313;48.552;9.370;2023-07-28T10:13:43;3.43;;;2.33;;
4601;SDS011;2313;48.552;9.370;2023-07-28T10:16:11;4.87;;;2.80;;
4601;SDS011;2313;48.552;9.370;2023-07-28T10:18:39;2.60;;;2.30;;
4601;SDS011;2313;48.552;9.370;2023-07-28T10:21:06;2.80;;;2.23;;
4601;SDS011;2313;48.552;9.370;2023-07-28T10:23:38;4.90;;;2.67;;
4601;SDS011;2313;48.552;9.370;2023-07-28T10:26:04;2.17;;;1.97;;
4601;SDS011;2313;48.552;9.370;2023-07-28T10:28:36;3.10;;;2.80;;
4601;SDS011;2313;48.552;9.370;2023-07-28T10:31:07;3.00;;;2.70;;
4601;SDS011;2313;48.552;9.370;2023-07-28T10:33:39;2.90;;;2.70;;
4601;SDS011;2313;48.552;9.370;2023-07-28T10:36:15;2.37;;;2.17;;
4601;SDS011;2313;48.552;9.370;2023-07-28T10:39:33;3.50;;;2.80;;
4601;SDS011;2313;48.552;9.370;2023-07-28T10:44:30;3.37;;;2.83;;
4601;SDS011;2313;48.552;9.370;2023-07-28T10:46:56;3.60;;;2.83;;
4601;SDS011;2313;48.552;9.370;2023-07-28T10:49:24;3.87;;;2.67;;
4601;SDS011;2313;48.552;9.370;2023-07-28T10:51:50;4.90;;;2.43;;
4601;SDS011;2313;48.552;9.370;2023-07-28T10:54:16;3.23;;;2.80;;
4601;SDS011;2313;48.552;9.370;2023-07-28T10:56:45;2.60;;;2.40;;
4601;SDS011;2313;48.552;9.370;2023-07-28T10:59:11;3.90;;;3.10;;
4601;SDS011;2313;48.552;9.370;2023-07-28T11:01:37;3.93;;;2.70;;
4601;SDS011;2313;48.552;9.370;2023-07-28T11:04:12;4.27;;;2.50;;
4601;SDS011;2313;48.552;9.370;2023-07-28T11:06:43;3.50;;;2.47;;
4601;SDS011;2313;48.552;9.370;2023-07-28T11:09:14;4.50;;;2.83;;
4601;SDS011;2313;48.552;9.370;2023-07-28T11:11:44;4.63;;;2.47;;
4601;SDS011;2313;48.552;9.370;2023-07-28T11:14:10;2.47;;;2.27;;
4601;SDS011;2313;48.552;9.370;2023-07-28T11:16:38;4.40;;;2.77;;
4601;SDS011;2313;48.552;9.370;2023-07-28T11:19:09;3.10;;;2.80;;
4601;SDS011;2313;48.552;9.370;2023-07-28T11:21:36;3.07;;;2.60;;
4601;SDS011;2313;48.552;9.370;2023-07-28T11:24:06;4.27;;;2.63;;
4601;SDS011;2313;48.552;9.370;2023-07-28T11:26:34;4.80;;;2.60;;
4601;SDS011;2313;48.552;9.370;2023-07-28T11:29:00;4.57;;;2.27;;
4601;SDS011;2313;48.552;9.370;2023-07-28T11:31:26;5.17;;;3.03;;
4601;SDS011;2313;48.552;9.370;2023-07-28T11:33:52;3.30;;;2.87;;
4601;SDS011;2313;48.552;9.370;2023-07-28T11:36:22;6.17;;;3.00;;
4601;SDS011;2313;48.552;9.370;2023-07-28T11:38:52;3.40;;;2.57;;
4601;SDS011;2313;48.552;9.370;2023-07-28T11:41:19;4.43;;;2.83;;
4601;SDS011;2313;48.552;9.370;2023-07-28T11:43:46;4.33;;;2.80;;
4601;SDS011;2313;48.552;9.370;2023-07-28T11:51:47;6.73;;;3.07;;
4601;SDS011;2313;48.552;9.370;2023-07-28T11:54:14;4.87;;;3.10;;
4601;SDS011;2313;48.552;9.370;2023-07-28T11:56:41;3.67;;;2.67;;
4601;SDS011;2313;48.552;9.370;2023-07-28T11:59:08;3.33;;;3.03;;
4601;SDS011;2313;48.552;9.370;2023-07-28T12:01:34;3.07;;;2.77;;
4601;SDS011;2313;48.552;9.370;2023-07-28T12:04:18;3.27;;;2.80;;
4601;SDS011;2313;48.552;9.370;2023-07-28T12:07:04;7.70;;;2.57;;
4601;SDS011;2313;48.552;9.370;2023-07-28T12:12:39;3.23;;;2.93;;
4601;SDS011;2313;48.552;9.370;2023-07-28T12:15:19;4.10;;;3.00;;
4601;SDS011;2313;48.552;9.370;2023-07-28T12:18:11;4.57;;;3.10;;
4601;SDS011;2313;48.552;9.370;2023-07-28T12:20:41;3.53;;;2.80;;
4601;SDS011;2313;48.552;9.370;2023-07-28T12:23:11;3.23;;;3.00;;
4601;SDS011;2313;48.552;9.370;2023-07-28T12:25:41;2.60;;;2.40;;
4601;SDS011;2313;48.552;9.370;2023-07-28T12:28:07;5.20;;;3.20;;
4601;SDS011;2313;48.552;9.370;2023-07-28T12:30:33;4.30;;;3.20;;
4601;SDS011;2313;48.552;9.370;2023-07-28T12:32:59;3.00;;;2.80;;
4601;SDS011;2313;48.552;9.370;2023-07-28T12:35:25;7.10;;;2.87;;
4601;SDS011;2313;48.552;9.370;2023-07-28T12:37:55;3.53;;;2.70;;
4601;SDS011;2313;48.552;9.370;2023-07-28T12:40:22;6.30;;;3.30;;
4601;SDS011;2313;48.552;9.370;2023-07-28T12:42:48;3.50;;;3.20;;
4601;SDS011;2313;48.552;9.370;2023-07-28T12:45:14;3.20;;;2.60;;
4601;SDS011;2313;48.552;9.370;2023-07-28T12:47:43;10.40;;;3.00;;
4601;SDS011;2313;48.552;9.370;2023-07-28T12:50:09;2.90;;;2.57;;
4601;SDS011;2313;48.552;9.370;2023-07-28T12:52:35;5.00;;;3.20;;
4601;SDS011;2313;48.552;9.370;2023-07-28T12:55:02;4.80;;;2.90;;
4601;SDS011;2313;48.552;9.370;2023-07-28T12:57:28;4.10;;;2.80;;
4601;SDS011;2313;48.552;9.370;2023-07-28T12:59:53;5.27;;;3.30;;
4601;SDS011;2313;48.552;9.370;2023-07-28T13:02:19;5.83;;;3.37;;
4601;SDS011;2313;48.552;9.370;2023-07-28T13:04:45;5.63;;;3.20;;
4601;SDS011;2313;48.552;9.370;2023-07-28T13:07:10;4.00;;;3.60;;
4601;SDS011;2313;48.552;9.370;2023-07-28T13:09:36;4.03;;;2.93;;
4601;SDS011;2313;48.552;9.370;2023-07-28T13:12:02;4.13;;;3.57;;
4601;SDS011;2313;48.552;9.370;2023-07-28T13:14:28;4.40;;;3.20;;
4601;SDS011;2313;48.552;9.370;2023-07-28T13:16:53;4.23;;;3.30;;
4601;SDS011;2313;48.552;9.370;2023-07-28T13:19:19;3.40;;;3.13;;
4601;SDS011;2313;48.552;9.370;2023-07-28T13:21:44;3.60;;;2.77;;
4601;SDS011;2313;48.552;9.370;2023-07-28T13:24:10;3.10;;;2.73;;
4601;SDS011;2313;48.552;9.370;2023-07-28T13:26:36;4.57;;;3.00;;
4601;SDS011;2313;48.552;9.370;2023-07-28T13:29:01;3.37;;;3.07;;
4601;SDS011;2313;48.552;9.370;2023-07-28T13:31:27;3.13;;;2.83;;
4601;SDS011;2313;48.552;9.370;2023-07-28T13:33:53;4.10;;;3.23;;
4601;SDS011;2313;48.552;9.370;2023-07-28T13:36:19;3.50;;;3.20;;
4601;SDS011;2313;48.552;9.370;2023-07-28T13:38:45;3.50;;;3.20;;
4601;SDS011;2313;48.552;9.370;2023-07-28T13:41:11;4.40;;;3.80;;
4601;SDS011;2313;48.552;9.370;2023-07-28T13:43:36;4.20;;;3.27;;
4601;SDS011;2313;48.552;9.370;2023-07-28T13:46:05;3.37;;;3.07;;
4601;SDS011;2313;48.552;9.370;2023-07-28T13:48:31;3.37;;;2.83;;
4601;SDS011;2313;48.552;9.370;2023-07-28T13:50:57;5.20;;;4.07;;
4601;SDS011;2313;48.552;9.370;2023-07-28T13:53:23;3.37;;;3.07;;
4601;SDS011;2313;48.552;9.370;2023-07-28T13:55:50;4.33;;;3.93;;
4601;SDS011;2313;48.552;9.370;2023-07-28T13:58:16;6.10;;;4.20;;
4601;SDS011;2313;48.552;9.370;2023-07-28T14:00:41;6.47;;;4.20;;
4601;SDS011;2313;48.552;9.370;2023-07-28T14:03:07;4.97;;;4.20;;
4601;SDS011;2313;48.552;9.370;2023-07-28T14:05:33;4.97;;;4.47;;
4601;SDS011;2313;48.552;9.370;2023-07-28T14:07:59;5.07;;;3.73;;
4601;SDS011;2313;48.552;9.370;2023-07-28T14:10:24;4.77;;;3.43;;
4601;SDS011;2313;48.552;9.370;2023-07-28T14:12:51;4.20;;;3.80;;
4601;SDS011;2313;48.552;9.370;2023-07-28T14:15:16;4.40;;;3.30;;
4601;SDS011;2313;48.552;9.370;2023-07-28T14:17:42;4.77;;;3.70;;
4601;SDS011;2313;48.552;9.370;2023-07-28T14:20:08;4.97;;;3.90;;
4601;SDS011;2313;48.552;9.370;2023-07-28T14:22:34;3.33;;;3.03;;
4601;SDS011;2313;48.552;9.370;2023-07-28T14:25:00;8.00;;;3.20;;
4601;SDS011;2313;48.552;9.370;2023-07-28T14:27:25;4.10;;;3.10;;
4601;SDS011;2313;48.552;9.370;2023-07-28T14:29:51;4.33;;;3.63;;
4601;SDS011;2313;48.552;9.370;2023-07-28T14:32:17;3.60;;;3.30;;
4601;SDS011;2313;48.552;9.370;2023-07-28T14:34:42;6.30;;;4.13;;
4601;SDS011;2313;48.552;9.370;2023-07-28T14:37:08;8.17;;;3.60;;
4601;SDS011;2313;48.552;9.370;2023-07-28T14:39:33;9.20;;;4.17;;
4601;SDS011;2313;48.552;9.370;2023-07-28T14:41:59;6.43;;;4.60;;
4601;SDS011;2313;48.552;9.370;2023-07-28T14:44:25;4.90;;;4.07;;
4601;SDS011;2313;48.552;9.370;2023-07-28T14:46:54;5.20;;;3.60;;
4601;SDS011;2313;48.552;9.370;2023-07-28T14:49:20;5.47;;;3.73;;
4601;SDS011;2313;48.552;9.370;2023-07-28T14:51:45;3.70;;;3.40;;
4601;SDS011;2313;48.552;9.370;2023-07-28T14:54:11;4.67;;;4.00;;
4601;SDS011;2313;48.552;9.370;2023-07-28T14:56:37;5.33;;;3.93;;
4601;SDS011;2313;48.552;9.370;2023-07-28T14:59:02;9.77;;;4.40;;
4601;SDS011;2313;48.552;9.370;2023-07-28T15:01:28;9.00;;;3.77;;
4601;SDS011;2313;48.552;9.370;2023-07-28T15:03:54;11.03;;;4.37;;
4601;SDS011;2313;48.552;9.370;2023-07-28T15:06:20;3.90;;;3.33;;
4601;SDS011;2313;48.552;9.370;2023-07-28T15:08:46;4.33;;;3.43;;
4601;SDS011;2313;48.552;9.370;2023-07-28T15:11:12;3.93;;;3.53;;
4601;SDS011;2313;48.552;9.370;2023-07-28T15:13:38;3.80;;;3.17;;
4601;SDS011;2313;48.552;9.370;2023-07-28T15:16:05;3.40;;;3.07;;
4601;SDS011;2313;48.552;9.370;2023-07-28T15:18:30;8.87;;;3.00;;
4601;SDS011;2313;48.552;9.370;2023-07-28T15:20:56;4.00;;;2.83;;
4601;SDS011;2313;48.552;9.370;2023-07-28T15:23:24;3.93;;;2.93;;
4601;SDS011;2313;48.552;9.370;2023-07-28T15:25:50;5.00;;;3.20;;
4601;SDS011;2313;48.552;9.370;2023-07-28T15:28:17;3.93;;;3.00;;